createdAt,value
2022-10-12T00:02:20.093Z,72.10
2022-10-12T00:05:25.823Z,71.77
2022-10-12T00:08:34.560Z,72.44
2022-10-12T00:11:42.599Z,72.26
2022-10-12T00:14:48.235Z,72.01
2022-10-12T00:17:53.799Z,71.86
2022-10-12T00:21:09.549Z,71.76
2022-10-12T00:24:18.883Z,72.11
2022-10-12T00:27:24.500Z,72.02
2022-10-12T00:30:30.787Z,71.51
2022-10-12T00:33:37.830Z,71.44
2022-10-12T00:36:43.756Z,72.22
2022-10-12T00:39:51.963Z,72.06
2022-10-12T00:42:57.561Z,71.73
2022-10-12T00:46:08.405Z,71.91
2022-10-12T00:49:20.922Z,72.05
2022-10-12T00:52:37.660Z,72.46
2022-10-12T00:55:55.879Z,72.34
2022-10-12T00:59:10.063Z,72.38
2022-10-12T01:02:17.495Z,72.20
2022-10-12T01:05:25.697Z,72.33
2022-10-12T01:08:32.682Z,72.34
2022-10-12T01:11:43.094Z,72.96
2022-10-12T01:14:49.085Z,72.61
2022-10-12T01:18:08.453Z,72.40
2022-10-12T01:21:23.903Z,72.34
2022-10-12T01:24:54.581Z,71.97
2022-10-12T01:28:21.569Z,73.15
2022-10-12T01:31:42.661Z,75.00
2022-10-12T01:34:58.411Z,77.19
2022-10-12T01:38:24.509Z,76.31
2022-10-12T01:41:39.551Z,74.54
2022-10-12T01:44:45.089Z,74.34
2022-10-12T01:47:58.209Z,73.71
2022-10-12T01:51:06.781Z,75.81
2022-10-12T01:54:31.619Z,77.01
2022-10-12T01:57:56.436Z,77.05
2022-10-12T02:01:19.610Z,77.21
2022-10-12T02:04:40.540Z,75.81
2022-10-12T02:07:55.752Z,74.19
2022-10-12T02:11:15.957Z,73.73
2022-10-12T02:14:38.410Z,73.59
2022-10-12T02:17:51.217Z,72.83
2022-10-12T02:21:03.625Z,72.79
2022-10-12T02:24:14.336Z,73.01
2022-10-12T02:27:24.236Z,72.57
2022-10-12T02:30:45.963Z,73.19
2022-10-12T02:34:03.630Z,73.31
2022-10-12T02:37:33.257Z,73.01
2022-10-12T02:40:48.425Z,73.06
2022-10-12T02:44:01.136Z,73.31
2022-10-12T02:47:14.329Z,73.09
2022-10-12T02:50:25.270Z,72.58
2022-10-12T02:53:34.748Z,72.69
2022-10-12T02:56:47.751Z,72.44
2022-10-12T02:59:53.517Z,72.38
2022-10-12T03:02:59.039Z,72.71
2022-10-12T03:06:11.963Z,73.25
2022-10-12T03:09:27.061Z,74.30
2022-10-12T03:12:32.563Z,75.50
2022-10-12T03:15:38.329Z,78.30
2022-10-12T03:18:44.211Z,77.17
2022-10-12T03:21:49.807Z,78.24
2022-10-12T03:25:15.407Z,79.21
2022-10-12T03:28:21.442Z,79.46
2022-10-12T03:31:27.215Z,80.15
2022-10-12T03:34:32.811Z,78.81
2022-10-12T03:37:38.992Z,77.88
2022-10-12T03:40:48.071Z,77.99
2022-10-12T03:43:53.842Z,75.32
2022-10-12T03:46:59.571Z,79.87
2022-10-12T03:50:05.125Z,80.58
2022-10-12T03:53:16.194Z,80.08
2022-10-12T03:56:24.476Z,78.91
2022-10-12T03:59:30.038Z,76.92
2022-10-12T04:02:42.024Z,76.94
2022-10-12T04:05:57.049Z,75.37
2022-10-12T04:09:03.149Z,76.47
2022-10-12T04:12:11.559Z,75.92
2022-10-12T04:15:18.384Z,78.63
2022-10-12T04:18:24.155Z,78.13
2022-10-12T04:21:34.402Z,80.84
2022-10-12T04:24:40.113Z,81.93
2022-10-12T04:27:48.375Z,81.30
2022-10-12T04:30:53.911Z,81.82
2022-10-12T04:33:59.485Z,82.24
2022-10-12T04:37:07.387Z,82.64
2022-10-12T04:40:14.006Z,81.59
2022-10-12T04:43:23.876Z,81.44
2022-10-12T04:46:29.638Z,81.64
2022-10-12T04:49:35.245Z,80.15
2022-10-12T04:52:50.079Z,79.09
2022-10-12T04:56:13.710Z,79.65
2022-10-12T04:59:22.011Z,78.54
2022-10-12T05:02:27.737Z,79.20
2022-10-12T05:05:39.914Z,79.15
2022-10-12T05:08:45.455Z,79.28
2022-10-12T05:11:51.129Z,80.22
2022-10-12T05:15:18.051Z,79.88
2022-10-12T05:18:23.972Z,80.19
2022-10-12T05:21:29.774Z,80.25
2022-10-12T05:24:35.631Z,80.01
2022-10-12T05:27:45.019Z,80.24
2022-10-12T05:30:56.262Z,80.42
2022-10-12T05:34:04.830Z,79.59
2022-10-12T05:37:10.691Z,78.90
2022-10-12T05:40:17.981Z,79.57
2022-10-12T05:43:23.837Z,79.38
2022-10-12T05:46:32.215Z,79.23
2022-10-12T05:49:38.227Z,78.45
2022-10-12T05:52:44.033Z,77.82
2022-10-12T05:55:56.958Z,76.91
2022-10-12T05:59:03.940Z,77.14
2022-10-12T06:02:18.035Z,75.29
2022-10-12T06:05:23.896Z,75.07
2022-10-12T06:08:30.327Z,74.07
2022-10-12T06:11:36.714Z,73.45
2022-10-12T06:14:43.013Z,74.38
2022-10-12T06:17:51.733Z,73.20
2022-10-12T06:24:24.514Z,69.30
2022-10-12T06:27:30.341Z,68.22
2022-10-12T06:30:36.204Z,69.42
2022-10-12T06:33:44.942Z,69.30
2022-10-12T06:36:52.496Z,69.90
2022-10-12T06:39:58.218Z,68.41
2022-10-12T06:43:04.260Z,68.51
2022-10-12T06:46:10.151Z,66.78
2022-10-12T06:49:18.445Z,65.62
2022-10-12T06:52:24.028Z,65.91
2022-10-12T06:55:29.957Z,64.07
2022-10-12T06:58:35.661Z,63.34
2022-10-12T07:01:41.316Z,59.83
2022-10-12T07:04:53.740Z,57.71
2022-10-12T07:07:59.883Z,55.71
2022-10-12T07:11:06.773Z,53.88
2022-10-12T07:14:12.583Z,52.04
2022-10-12T07:17:18.435Z,52.52
2022-10-12T07:20:26.831Z,52.73
2022-10-12T07:23:33.909Z,49.75
2022-10-12T07:26:39.801Z,49.43
2022-10-12T07:29:45.927Z,48.38
2022-10-12T07:32:51.875Z,46.31
2022-10-12T07:36:13.884Z,43.32
2022-10-12T07:39:20.906Z,41.90
2022-10-12T07:42:26.922Z,40.88
2022-10-12T07:45:34.047Z,40.73
2022-10-12T07:48:47.221Z,39.99
2022-10-12T07:51:58.460Z,38.76
2022-10-12T07:55:04.573Z,38.64
2022-10-12T07:58:10.646Z,40.09
2022-10-12T08:01:16.609Z,40.59
2022-10-12T08:04:22.600Z,41.07
2022-10-12T08:07:31.092Z,41.01
2022-10-12T08:10:39.162Z,41.46
2022-10-12T08:13:46.607Z,41.17
2022-10-12T08:16:52.726Z,42.31
2022-10-12T08:20:01.740Z,40.67
2022-10-12T08:23:12.417Z,40.48
2022-10-12T08:26:19.143Z,40.25
2022-10-12T08:29:25.005Z,39.67
2022-10-12T08:32:31.230Z,40.33
2022-10-12T08:35:36.982Z,39.68
2022-10-12T08:38:48.928Z,39.50
2022-10-12T08:42:17.060Z,38.61
2022-10-12T08:45:50.521Z,39.16
2022-10-12T08:49:07.335Z,40.11
2022-10-12T08:52:31.629Z,38.99
2022-10-12T08:55:55.490Z,37.67
2022-10-12T08:59:05.869Z,37.89
2022-10-12T09:02:46.780Z,37.87
2022-10-12T09:06:10.763Z,37.71
2022-10-12T09:09:56.583Z,38.70
2022-10-12T09:13:23.589Z,38.15
2022-10-12T09:16:36.097Z,37.24
2022-10-12T09:19:46.876Z,37.77
2022-10-12T09:22:56.742Z,36.93
2022-10-12T09:26:18.347Z,37.00
2022-10-12T09:29:34.006Z,35.27
2022-10-12T09:33:17.622Z,35.54
2022-10-12T09:36:26.786Z,39.15
2022-10-12T09:39:39.037Z,36.97
2022-10-12T09:42:45.259Z,35.68
2022-10-12T09:45:54.908Z,33.71
2022-10-12T09:49:02.699Z,34.07
2022-10-12T09:52:08.770Z,33.87
2022-10-12T09:55:30.150Z,32.85
2022-10-12T09:58:45.914Z,34.87
2022-10-12T10:02:18.522Z,34.15
2022-10-12T10:05:30.830Z,32.48
2022-10-12T10:08:46.167Z,32.04
2022-10-12T10:11:51.973Z,31.62
2022-10-12T10:15:01.615Z,31.79
2022-10-12T10:18:30.969Z,33.55
2022-10-12T10:21:40.934Z,32.14
2022-10-12T10:24:54.294Z,34.62
2022-10-12T10:28:27.713Z,35.87
2022-10-12T10:31:35.748Z,36.62
2022-10-12T10:34:45.842Z,38.47
2022-10-12T10:37:57.827Z,36.30
2022-10-12T10:41:09.571Z,35.20
2022-10-12T10:44:35.051Z,34.66
2022-10-12T10:47:48.199Z,34.62
2022-10-12T10:51:03.419Z,33.48
2022-10-12T10:54:27.710Z,33.19
2022-10-12T10:57:36.599Z,33.27
2022-10-12T11:00:50.828Z,31.25
2022-10-12T11:04:07.567Z,32.14
2022-10-12T11:07:30.988Z,32.87
2022-10-12T11:10:45.649Z,32.08
2022-10-12T11:14:04.464Z,34.43
2022-10-12T11:17:24.958Z,35.58
2022-10-12T11:20:53.456Z,33.07
2022-10-12T11:24:15.847Z,33.13
2022-10-12T11:27:33.693Z,31.67
2022-10-12T11:30:49.555Z,32.81
2022-10-12T11:34:01.472Z,33.26
2022-10-12T11:37:20.745Z,34.08
2022-10-12T11:44:16.349Z,33.72
2022-10-12T11:47:39.099Z,33.52
2022-10-12T11:50:50.221Z,32.39
2022-10-12T11:54:17.607Z,31.77
2022-10-12T11:57:34.258Z,32.08
2022-10-12T12:01:15.600Z,32.37
2022-10-12T12:04:48.502Z,33.00
2022-10-12T12:07:56.914Z,32.54
2022-10-12T12:11:25.634Z,33.08
2022-10-12T12:15:18.476Z,32.64
2022-10-12T12:18:29.199Z,32.38
2022-10-12T12:21:54.834Z,32.25
2022-10-12T12:25:19.744Z,33.49
2022-10-12T12:28:28.522Z,33.96
2022-10-12T12:31:34.354Z,34.86
2022-10-12T12:35:00.739Z,35.47
2022-10-12T12:38:27.505Z,36.44
2022-10-12T12:41:59.051Z,36.00
2022-10-12T12:45:44.455Z,36.12
2022-10-12T12:49:07.830Z,37.30
2022-10-12T12:52:25.269Z,35.90
2022-10-12T12:56:06.986Z,36.12
2022-10-12T12:59:51.740Z,35.20
2022-10-12T13:03:32.632Z,35.56
2022-10-12T13:07:28.015Z,34.87
2022-10-12T13:11:18.386Z,38.12
2022-10-12T13:14:53.302Z,39.14
2022-10-12T13:18:47.966Z,38.85
2022-10-12T13:21:59.332Z,38.06
2022-10-12T13:25:16.469Z,39.50
2022-10-12T13:28:32.440Z,39.96
2022-10-12T13:31:47.285Z,40.39
2022-10-12T13:34:59.938Z,40.42
2022-10-12T13:38:19.503Z,40.93
2022-10-12T13:41:32.369Z,42.10
2022-10-12T13:44:40.556Z,42.44
2022-10-12T13:47:46.389Z,42.68
2022-10-12T13:50:57.960Z,44.11
2022-10-12T13:54:03.598Z,42.93
2022-10-12T13:57:24.360Z,42.66
2022-10-12T14:00:38.901Z,42.57
2022-10-12T14:03:48.319Z,42.58
2022-10-12T14:07:10.345Z,42.08
2022-10-12T14:10:24.432Z,42.92
2022-10-12T14:13:38.372Z,42.68
2022-10-12T14:16:44.016Z,42.73
2022-10-12T14:19:53.380Z,42.81
2022-10-12T14:23:19.560Z,42.82
2022-10-12T14:26:32.144Z,42.62
2022-10-12T14:29:47.258Z,42.24
2022-10-12T14:32:59.413Z,43.91
2022-10-12T14:36:18.174Z,42.50
2022-10-12T14:39:23.836Z,41.97
2022-10-12T14:42:36.349Z,41.89
2022-10-12T14:45:44.616Z,41.63
2022-10-12T14:48:50.178Z,42.42
2022-10-12T14:51:58.210Z,42.25
2022-10-12T14:55:03.942Z,41.51
2022-10-12T14:58:09.879Z,41.46
2022-10-12T15:01:19.171Z,41.38
2022-10-12T15:04:24.835Z,41.77
2022-10-12T15:07:35.262Z,42.59
2022-10-12T15:10:55.201Z,42.39
2022-10-12T15:14:00.829Z,42.66
2022-10-12T15:17:10.597Z,42.80
2022-10-12T15:20:16.878Z,43.30
2022-10-12T15:23:22.537Z,43.54
2022-10-12T15:26:28.141Z,44.24
2022-10-12T15:29:33.992Z,44.43
2022-10-12T15:32:42.176Z,44.70
2022-10-12T15:35:53.801Z,45.14
2022-10-12T15:38:59.422Z,45.89
2022-10-12T15:42:06.290Z,46.26
2022-10-12T15:45:26.592Z,46.09
2022-10-12T15:48:34.748Z,46.44
2022-10-12T15:51:47.928Z,47.51
2022-10-12T15:54:53.495Z,47.30
2022-10-12T15:57:59.953Z,47.13
2022-10-12T16:01:05.762Z,47.86
2022-10-12T16:04:17.967Z,48.40
2022-10-12T16:07:23.904Z,48.69
2022-10-12T16:10:34.732Z,49.10
2022-10-12T16:13:46.900Z,49.02
2022-10-12T16:16:55.486Z,49.70
2022-10-12T16:20:03.644Z,49.97
2022-10-12T16:23:21.768Z,50.02
2022-10-12T16:26:27.588Z,50.17
2022-10-12T16:29:33.221Z,50.94
2022-10-12T16:32:39.035Z,51.75
2022-10-12T16:35:48.151Z,51.90
2022-10-12T16:38:58.104Z,52.20
2022-10-12T16:42:04.198Z,52.86
2022-10-12T16:45:11.863Z,52.59
2022-10-12T16:48:23.221Z,53.83
2022-10-12T16:51:31.419Z,53.92
2022-10-12T16:54:37.456Z,54.58
2022-10-12T16:57:44.159Z,53.93
2022-10-12T17:00:49.777Z,54.74
2022-10-12T17:04:01.984Z,53.90
2022-10-12T17:07:10.499Z,54.95
2022-10-12T17:10:22.428Z,54.12
2022-10-12T17:13:41.565Z,54.60
2022-10-12T17:16:52.511Z,55.17
2022-10-12T17:19:58.406Z,55.86
2022-10-12T17:23:14.255Z,56.50
2022-10-12T17:26:23.274Z,56.67
2022-10-12T17:29:31.942Z,56.81
2022-10-12T17:32:38.418Z,57.03
2022-10-12T17:35:46.509Z,56.97
2022-10-12T17:38:55.100Z,57.20
2022-10-12T17:42:00.715Z,57.21
2022-10-12T17:45:09.018Z,57.26
2022-10-12T17:48:16.251Z,57.16
2022-10-12T17:51:26.595Z,57.83
2022-10-12T17:54:34.787Z,57.13
2022-10-12T17:57:40.375Z,56.72
2022-10-12T18:00:46.041Z,57.26
2022-10-12T18:03:55.543Z,56.98
2022-10-12T18:07:01.125Z,57.04
2022-10-12T18:10:11.297Z,57.51
2022-10-12T18:13:16.974Z,57.55
2022-10-12T18:16:37.900Z,57.77
2022-10-12T18:19:43.508Z,58.10
2022-10-12T18:22:49.127Z,58.16
2022-10-12T18:25:57.480Z,58.56
2022-10-12T18:29:05.364Z,58.31
2022-10-12T18:32:11.571Z,58.61
2022-10-12T18:35:17.304Z,59.37
2022-10-12T18:38:23.890Z,59.16
2022-10-12T18:41:33.027Z,59.07
2022-10-12T18:44:40.595Z,59.14
2022-10-12T18:47:49.592Z,59.70
2022-10-12T18:51:03.536Z,59.63
2022-10-12T18:54:17.262Z,60.25
2022-10-12T18:57:30.189Z,59.92
2022-10-12T19:00:37.104Z,60.51
2022-10-12T19:03:42.903Z,60.87
2022-10-12T19:06:48.997Z,61.17
2022-10-12T19:09:55.060Z,61.39
2022-10-12T19:13:09.478Z,61.70
2022-10-12T19:16:26.106Z,61.72
2022-10-12T19:19:32.473Z,61.55
2022-10-12T19:22:49.926Z,61.85
2022-10-12T19:25:55.799Z,61.76
2022-10-12T19:29:05.024Z,61.93
2022-10-12T19:32:10.686Z,62.06
2022-10-12T19:35:16.331Z,62.12
2022-10-12T19:38:22.466Z,62.24
2022-10-12T19:41:41.339Z,62.00
2022-10-12T19:44:49.586Z,61.82
2022-10-12T19:47:55.185Z,61.30
2022-10-12T19:51:05.170Z,61.76
2022-10-12T19:54:21.301Z,61.65
2022-10-12T19:57:34.276Z,61.45
2022-10-12T20:01:00.123Z,61.77
2022-10-12T20:04:12.216Z,61.59
2022-10-12T20:07:17.773Z,61.83
2022-10-12T20:10:23.480Z,61.88
2022-10-12T20:13:29.358Z,62.24
2022-10-12T20:16:38.121Z,62.27
2022-10-12T20:19:43.708Z,61.98
2022-10-12T20:22:49.326Z,62.30
2022-10-12T20:25:57.842Z,62.38
2022-10-12T20:29:05.044Z,62.30
2022-10-12T20:32:14.979Z,62.19
2022-10-12T20:35:20.742Z,62.42
2022-10-12T20:38:26.446Z,62.34
2022-10-12T20:41:37.083Z,62.61
2022-10-12T20:44:42.716Z,62.68
2022-10-12T20:47:51.550Z,62.58
2022-10-12T20:50:59.530Z,62.66
2022-10-12T20:54:14.900Z,62.70
2022-10-12T20:57:20.458Z,62.96
2022-10-12T21:00:29.164Z,63.18
2022-10-12T21:03:38.083Z,63.16
2022-10-12T21:06:44.238Z,63.51
2022-10-12T21:09:52.409Z,63.56
2022-10-12T21:12:57.992Z,63.54
2022-10-12T21:16:07.917Z,63.10
2022-10-12T21:19:19.549Z,63.54
2022-10-12T21:22:25.101Z,63.63
2022-10-12T21:25:30.994Z,63.43
2022-10-12T21:28:36.768Z,63.94
2022-10-12T21:31:42.725Z,63.65
2022-10-12T21:34:51.085Z,64.05
2022-10-12T21:37:59.113Z,64.06
2022-10-12T21:41:07.690Z,64.45
2022-10-12T21:44:16.314Z,64.44
2022-10-12T21:47:21.989Z,64.80
2022-10-12T21:50:30.735Z,64.83
2022-10-12T21:53:38.796Z,64.79
2022-10-12T21:56:46.094Z,64.88
2022-10-12T21:59:56.182Z,65.01
2022-10-12T22:03:01.792Z,65.14
2022-10-12T22:06:16.753Z,65.31
2022-10-12T22:09:23.042Z,65.84
2022-10-12T22:12:30.301Z,65.91
2022-10-12T22:15:39.144Z,66.04
2022-10-12T22:18:50.257Z,66.27
2022-10-12T22:22:00.298Z,66.44
2022-10-12T22:25:15.305Z,66.63
2022-10-12T22:28:21.019Z,67.04
2022-10-12T22:31:28.255Z,67.32
2022-10-12T22:34:33.950Z,67.33
2022-10-12T22:37:44.328Z,67.67
2022-10-12T22:40:57.714Z,67.51
2022-10-12T22:44:06.349Z,68.10
2022-10-12T22:47:11.946Z,68.60
2022-10-12T22:50:17.772Z,68.54
2022-10-12T22:53:28.513Z,68.69
2022-10-12T22:56:34.495Z,68.55
2022-10-12T22:59:40.321Z,68.57
2022-10-12T23:02:45.881Z,68.85
2022-10-12T23:05:52.221Z,68.71
2022-10-12T23:09:00.457Z,68.70
2022-10-12T23:12:06.195Z,68.63
2022-10-12T23:15:13.669Z,68.72
2022-10-12T23:18:19.849Z,69.19
2022-10-12T23:21:26.017Z,68.87
2022-10-12T23:24:34.168Z,69.10
2022-10-12T23:27:39.914Z,69.29
2022-10-12T23:30:45.758Z,69.29
2022-10-12T23:33:52.343Z,69.73
2022-10-12T23:36:58.230Z,69.31
2022-10-12T23:40:07.293Z,69.22
2022-10-12T23:43:12.932Z,69.08
2022-10-12T23:46:18.609Z,69.46
2022-10-12T23:49:24.512Z,69.54
2022-10-12T23:52:32.746Z,69.80
2022-10-12T23:55:42.100Z,70.15
2022-10-12T23:58:47.643Z,70.27
